Aviation Digital Data Service (ADDS)

Output produced by METARs form (1205 UTC 24 February 2018)
found at http://www.aviationweather.gov/adds/metars/
 
VVDN 241130Z 35009KT 8000 FEW013 21/19 Q1016 NOSIG
TAF VVDN 241100Z 2412/2512 36008KT 9999 FEW013 SCT050 
     BECMG 2414/2415 4000 BR 
     BECMG 2420/2421 2500 BR 
     BECMG 2500/2501 7000 NSW
       
VVNB 241130Z VRB02KT 3700 BR BKN015 18/15 Q1016 NOSIG
TAF VVNB 241100Z 2412/2512 10005KT 2000 BR FEW012 BKN015 
     TEMPO 2412/2416 1400 DZ BR SCT004 BKN012 
     TEMPO 2421/2501 1200 DZ BR SCT003 BKN010 
     BECMG 2503/2504 02008KT 6000 NSW FEW010 BKN040
       
VVTS 241130Z 14006G17KT 020V180 9999 FEW017 SCT050 30/20 Q1010 NOSIG
TAF VVTS 241100Z 2412/2518 13006KT 9999 SCT017